Mercedes — PCMC — position and weather

sailwx.info

Track history (hours):
 
Tides and Currents Weather Stations Pressure Air Temp Water Temp Dewpoint Dewpoint Depression Visibility Wind Speed Wind Dir Waves Ship Positions

Mercedes (Netherlands)

Brig, built 2005.

Last reported at 2017-Jun-27 10:00 UTC. Time now 2017-Jun-27 10:25 UTC.
Position N 54°22' E 010°08'.

Length 47 m; draft 3.4 m.

Type: Sailing vessel. MMSI: 244595000.

Date/timePositionNaut miles runAvg speedWind from/ knotsBaromVisibWave heightAir tempDewpointWater temp
2017-Jun-27 10:00N 54°22' E 010°08'0 0.3
2017-Jun-27 09:30N 54°22' E 010°08'1 1.3
2017-Jun-27 09:00N 54°22' E 010°09'0 0.2
2017-Jun-27 08:30N 54°21' E 010°09'1 2.3
2017-Jun-27 07:55N 54°20' E 010°09'0 0.0
2017-Jun-27 07:25N 54°20' E 010°09'0 0.0
2017-Jun-27 06:52N 54°20' E 010°09'0 0.0
2017-Jun-27 06:28N 54°20' E 010°09'0 0.0
2017-Jun-27 05:58N 54°20' E 010°09'0 0.0
2017-Jun-27 05:17N 54°20' E 010°09'0 0.0
2017-Jun-27 04:59N 54°20' E 010°09'0 0.0
2017-Jun-27 04:29N 54°20' E 010°09'0 0.0
2017-Jun-27 03:59N 54°20' E 010°09'0 0.0
2017-Jun-27 03:29N 54°20' E 010°09'0 0.0
2017-Jun-27 02:59N 54°20' E 010°09'0 0.0
2017-Jun-27 02:29N 54°20' E 010°09'0 0.0
2017-Jun-27 01:59N 54°20' E 010°09'0 0.0
2017-Jun-27 01:23N 54°20' E 010°09'0 0.0
2017-Jun-27 00:53N 54°20' E 010°09'0 0.0
2017-Jun-27 00:29N 54°20' E 010°09'0 0.0
2017-Jun-26 23:47N 54°20' E 010°09'0 0.0
2017-Jun-26 23:29N 54°20' E 010°09'0 0.0
2017-Jun-26 22:50N 54°20' E 010°09'0 0.0
2017-Jun-26 22:20N 54°20' E 010°09'0 0.0
2017-Jun-26 21:59N 54°20' E 010°09'0 0.0
2017-Jun-26 21:26N 54°20' E 010°09'0 0.0
2017-Jun-26 20:59N 54°20' E 010°09'0 0.0
2017-Jun-26 20:23N 54°20' E 010°09'0 0.0
2017-Jun-26 19:53N 54°20' E 010°09'0 0.0
2017-Jun-26 19:29N 54°20' E 010°09'0 0.0
2017-Jun-26 18:59N 54°20' E 010°09'0 0.0
2017-Jun-26 18:26N 54°20' E 010°09'0 0.0
2017-Jun-26 17:59N 54°20' E 010°09'0 0.0
2017-Jun-26 17:29N 54°20' E 010°09'0 0.0
2017-Jun-26 16:59N 54°20' E 010°09'0 0.0
2017-Jun-26 16:29N 54°20' E 010°09'0 0.0
2017-Jun-26 15:59N 54°20' E 010°09'0 0.0
2017-Jun-26 15:23N 54°20' E 010°09'0 0.0
2017-Jun-26 14:59N 54°20' E 010°09'0 0.0
2017-Jun-26 13:59N 54°20' E 010°09'0 0.0
2017-Jun-26 13:29N 54°20' E 010°09'0 0.0
2017-Jun-26 12:53N 54°20' E 010°09'0 0.0
2017-Jun-26 12:29N 54°20' E 010°09'0 0.0
2017-Jun-26 11:53N 54°20' E 010°09'0 0.0
2017-Jun-26 11:29N 54°20' E 010°09'0 0.0
2017-Jun-26 10:50N 54°20' E 010°09'0 0.0
2017-Jun-26 10:26N 54°20' E 010°09'0 0.0
2017-Jun-26 09:53N 54°20' E 010°09'0 0.0
2017-Jun-26 09:29N 54°20' E 010°09'0 0.0
2017-Jun-26 08:59N 54°20' E 010°09'0 0.0
2017-Jun-26 08:29N 54°20' E 010°09'0 0.0
2017-Jun-26 07:59N 54°20' E 010°09'0 0.0
2017-Jun-26 07:29N 54°20' E 010°09'0 0.0
2017-Jun-26 06:59N 54°20' E 010°09'0 0.0
2017-Jun-26 06:29N 54°20' E 010°09'0 0.0
2017-Jun-26 05:59N 54°20' E 010°09'0 0.0
2017-Jun-26 01:14N 54°20' E 010°09'0 0.0
2017-Jun-26 00:56N 54°20' E 010°09'0 0.0
2017-Jun-26 00:29N 54°20' E 010°09'0 0.0
2017-Jun-25 23:44N 54°20' E 010°09'0 0.0
2017-Jun-25 23:29N 54°20' E 010°09'0 0.0
2017-Jun-25 22:59N 54°20' E 010°09'0 0.0
2017-Jun-25 22:29N 54°20' E 010°09'0 0.0
2017-Jun-25 21:53N 54°20' E 010°09'0 0.2
2017-Jun-25 21:30N 54°20' E 010°09'0 0.6
2017-Jun-25 21:00N 54°20' E 010°10'0 0.1
2017-Jun-25 20:30N 54°20' E 010°10'2 3.4
2017-Jun-25 20:00N 54°22' E 010°10'5 7.4
2017-Jun-25 19:20N 54°27' E 010°13'2 5.3
2017-Jun-25 19:00N 54°25' E 010°12'3 5.3
2017-Jun-25 18:30N 54°22' E 010°11'3 5.6
2017-Jun-25 18:00N 54°20' E 010°09'0 0.6
2017-Jun-25 17:30N 54°20' E 010°09'0 0.2
2017-Jun-25 16:46N 54°20' E 010°09'0 0.0
2017-Jun-25 16:28N 54°20' E 010°09'0 0.0
2017-Jun-25 15:58N 54°20' E 010°09'0 0.0
2017-Jun-25 15:31N 54°20' E 010°09'0 0.0
2017-Jun-25 15:00N 54°20' E 010°09'0 0.0
2017-Jun-25 14:30N 54°20' E 010°09'0 0.0
2017-Jun-25 13:30N 54°20' E 010°09'1 3.0
2017-Jun-25 13:00N 54°22' E 010°10'3 5.7
2017-Jun-25 12:30N 54°24' E 010°12'2 4.1
2017-Jun-25 12:00N 54°26' E 010°14'3 5.1
2017-Jun-25 11:27N 54°29' E 010°15'0 0.6
2017-Jun-25 10:58N 54°29' E 010°15'3 6.4
2017-Jun-25 10:30N 54°26' E 010°12'6 0.6
2017-Jun-25 01:14N 54°20' E 010°09'0 0.0
2017-Jun-25 00:59N 54°20' E 010°09'0 0.0
2017-Jun-25 00:26N 54°20' E 010°09'0 0.0
2017-Jun-24 23:59N 54°20' E 010°09'0 0.0
2017-Jun-24 23:29N 54°20' E 010°09'0 0.0
2017-Jun-24 22:56N 54°20' E 010°09'0 0.0
2017-Jun-24 22:20N 54°20' E 010°09'0 0.0
2017-Jun-24 21:56N 54°20' E 010°09'1 1.8
2017-Jun-24 21:30N 54°21' E 010°10'4 8.0
2017-Jun-24 20:59N 54°25' E 010°12'3 6.3
2017-Jun-24 20:30N 54°27' E 010°15'0 1.0
2017-Jun-24 20:01N 54°27' E 010°14'3 5.1
2017-Jun-24 19:31N 54°25' E 010°12'2 3.8
2017-Jun-24 19:00N 54°23' E 010°12'3 5.7
2017-Jun-24 18:30N 54°21' E 010°10'2 3.4
2017-Jun-24 18:01N 54°19' E 010°08'1 2.3
2017-Jun-24 17:30N 54°20' E 010°09'0 0.0
2017-Jun-24 17:00N 54°20' E 010°09'0 0.0
2017-Jun-24 16:30N 54°20' E 010°09'0 0.0
2017-Jun-24 16:00N 54°20' E 010°09'0 0.0
2017-Jun-24 15:30N 54°20' E 010°09'0 0.0
2017-Jun-24 15:00N 54°20' E 010°09'0 0.0
2017-Jun-24 14:00N 54°20' E 010°09'1 1.4
2017-Jun-24 13:30N 54°21' E 010°10'2 4.4
2017-Jun-24 13:00N 54°23' E 010°11'  
2017-Jun-21 12:11N 54°20' E 010°09'0 0.0
2017-Jun-21 11:59N 54°20' E 010°09'0 0.0
2017-Jun-21 11:29N 54°20' E 010°09'0 0.0
2017-Jun-21 10:59N 54°20' E 010°09'0 0.0
2017-Jun-21 10:31N 54°20' E 010°09'1 2.6
2017-Jun-21 10:01N 54°19' E 010°08'3 6.5
2017-Jun-21 09:30N 54°22' E 010°10'4 6.3
2017-Jun-21 08:57N 54°25' E 010°13'2 5.6
2017-Jun-21 08:30N 54°23' E 010°12'3 6.1
2017-Jun-21 08:00N 54°20' E 010°09'0 0.0
2017-Jun-21 07:28N 54°20' E 010°09'0 0.0
2017-Jun-21 06:58N 54°20' E 010°09'0 0.0
2017-Jun-21 06:28N 54°20' E 010°09'0 0.0
2017-Jun-21 05:52N 54°20' E 010°09'0 0.0
2017-Jun-21 05:28N 54°20' E 010°09'0 0.0
2017-Jun-21 04:58N 54°20' E 010°09'0 0.0
2017-Jun-21 04:28N 54°20' E 010°09'0 0.0
2017-Jun-21 03:58N 54°20' E 010°09'0 0.0
2017-Jun-21 03:28N 54°20' E 010°09'0 0.0
2017-Jun-21 02:58N 54°20' E 010°09'0 0.0
2017-Jun-21 02:28N 54°20' E 010°09'0 0.0
2017-Jun-21 01:58N 54°20' E 010°09'0 0.0
2017-Jun-21 01:28N 54°20' E 010°09'0 0.0
2017-Jun-21 00:58N 54°20' E 010°09'0 0.0
2017-Jun-21 00:28N 54°20' E 010°09'0 0.0
2017-Jun-20 23:58N 54°20' E 010°09'0 0.0
2017-Jun-20 23:28N 54°20' E 010°09'0 0.0
2017-Jun-20 22:52N 54°20' E 010°09'0 0.0
2017-Jun-20 22:28N 54°20' E 010°09'0 0.0
2017-Jun-20 21:58N 54°20' E 010°09'0 0.0
2017-Jun-20 21:25N 54°20' E 010°09'0 0.0
2017-Jun-20 20:58N 54°20' E 010°09'0 0.0
2017-Jun-20 20:10N 54°20' E 010°09'0 0.0
2017-Jun-20 19:58N 54°20' E 010°09'0 0.0
2017-Jun-20 19:28N 54°20' E 010°09'0 0.0
2017-Jun-20 18:58N 54°20' E 010°09'0 0.0
2017-Jun-20 18:28N 54°20' E 010°09'0 0.0
2017-Jun-20 17:52N 54°20' E 010°09'0 0.0
2017-Jun-20 17:22N 54°20' E 010°09'0 0.0
2017-Jun-20 16:58N 54°20' E 010°09'  
Track history (hours):
 
Tides and Currents Weather Stations Pressure Air Temp Water Temp Dewpoint Dewpoint Depression Visibility Wind Speed Wind Dir Waves Ship Positions

Mercedes (Netherlands)

Brig, built 2005.

Last reported at 2017-Jun-27 10:00 UTC. Time now 2017-Jun-27 10:25 UTC.
Position N 54°22' E 010°08'.

Length 47 m; draft 3.4 m.

Type: Sailing vessel. MMSI: 244595000.

Date/timePositionNaut miles runAvg speedWind from/ knotsBaromVisibWave heightAir tempDewpointWater temp
2017-Jun-27 10:00N 54°22' E 010°08'0 0.3
2017-Jun-27 09:30N 54°22' E 010°08'1 1.3
2017-Jun-27 09:00N 54°22' E 010°09'0 0.2
2017-Jun-27 08:30N 54°21' E 010°09'1 2.3
2017-Jun-27 07:55N 54°20' E 010°09'0 0.0
2017-Jun-27 07:25N 54°20' E 010°09'0 0.0
2017-Jun-27 06:52N 54°20' E 010°09'0 0.0
2017-Jun-27 06:28N 54°20' E 010°09'0 0.0
2017-Jun-27 05:58N 54°20' E 010°09'0 0.0
2017-Jun-27 05:17N 54°20' E 010°09'0 0.0
2017-Jun-27 04:59N 54°20' E 010°09'0 0.0
2017-Jun-27 04:29N 54°20' E 010°09'0 0.0
2017-Jun-27 03:59N 54°20' E 010°09'0 0.0
2017-Jun-27 03:29N 54°20' E 010°09'0 0.0
2017-Jun-27 02:59N 54°20' E 010°09'0 0.0
2017-Jun-27 02:29N 54°20' E 010°09'0 0.0
2017-Jun-27 01:59N 54°20' E 010°09'0 0.0
2017-Jun-27 01:23N 54°20' E 010°09'0 0.0
2017-Jun-27 00:53N 54°20' E 010°09'0 0.0
2017-Jun-27 00:29N 54°20' E 010°09'0 0.0
2017-Jun-26 23:47N 54°20' E 010°09'0 0.0
2017-Jun-26 23:29N 54°20' E 010°09'0 0.0
2017-Jun-26 22:50N 54°20' E 010°09'0 0.0
2017-Jun-26 22:20N 54°20' E 010°09'0 0.0
2017-Jun-26 21:59N 54°20' E 010°09'0 0.0
2017-Jun-26 21:26N 54°20' E 010°09'0 0.0
2017-Jun-26 20:59N 54°20' E 010°09'0 0.0
2017-Jun-26 20:23N 54°20' E 010°09'0 0.0
2017-Jun-26 19:53N 54°20' E 010°09'0 0.0
2017-Jun-26 19:29N 54°20' E 010°09'0 0.0
2017-Jun-26 18:59N 54°20' E 010°09'0 0.0
2017-Jun-26 18:26N 54°20' E 010°09'0 0.0
2017-Jun-26 17:59N 54°20' E 010°09'0 0.0
2017-Jun-26 17:29N 54°20' E 010°09'0 0.0
2017-Jun-26 16:59N 54°20' E 010°09'0 0.0
2017-Jun-26 16:29N 54°20' E 010°09'0 0.0
2017-Jun-26 15:59N 54°20' E 010°09'0 0.0
2017-Jun-26 15:23N 54°20' E 010°09'0 0.0
2017-Jun-26 14:59N 54°20' E 010°09'0 0.0
2017-Jun-26 13:59N 54°20' E 010°09'0 0.0
2017-Jun-26 13:29N 54°20' E 010°09'0 0.0
2017-Jun-26 12:53N 54°20' E 010°09'0 0.0
2017-Jun-26 12:29N 54°20' E 010°09'0 0.0
2017-Jun-26 11:53N 54°20' E 010°09'0 0.0
2017-Jun-26 11:29N 54°20' E 010°09'0 0.0
2017-Jun-26 10:50N 54°20' E 010°09'0 0.0
2017-Jun-26 10:26N 54°20' E 010°09'0 0.0
2017-Jun-26 09:53N 54°20' E 010°09'0 0.0
2017-Jun-26 09:29N 54°20' E 010°09'0 0.0
2017-Jun-26 08:59N 54°20' E 010°09'0 0.0
2017-Jun-26 08:29N 54°20' E 010°09'0 0.0
2017-Jun-26 07:59N 54°20' E 010°09'0 0.0
2017-Jun-26 07:29N 54°20' E 010°09'0 0.0
2017-Jun-26 06:59N 54°20' E 010°09'0 0.0
2017-Jun-26 06:29N 54°20' E 010°09'0 0.0
2017-Jun-26 05:59N 54°20' E 010°09'0 0.0
2017-Jun-26 01:14N 54°20' E 010°09'0 0.0
2017-Jun-26 00:56N 54°20' E 010°09'0 0.0
2017-Jun-26 00:29N 54°20' E 010°09'0 0.0
2017-Jun-25 23:44N 54°20' E 010°09'0 0.0
2017-Jun-25 23:29N 54°20' E 010°09'0 0.0
2017-Jun-25 22:59N 54°20' E 010°09'0 0.0
2017-Jun-25 22:29N 54°20' E 010°09'0 0.0
2017-Jun-25 21:53N 54°20' E 010°09'0 0.2
2017-Jun-25 21:30N 54°20' E 010°09'0 0.6
2017-Jun-25 21:00N 54°20' E 010°10'0 0.1
2017-Jun-25 20:30N 54°20' E 010°10'2 3.4
2017-Jun-25 20:00N 54°22' E 010°10'5 7.4
2017-Jun-25 19:20N 54°27' E 010°13'2 5.3
2017-Jun-25 19:00N 54°25' E 010°12'3 5.3
2017-Jun-25 18:30N 54°22' E 010°11'3 5.6
2017-Jun-25 18:00N 54°20' E 010°09'0 0.6
2017-Jun-25 17:30N 54°20' E 010°09'0 0.2
2017-Jun-25 16:46N 54°20' E 010°09'0 0.0
2017-Jun-25 16:28N 54°20' E 010°09'0 0.0
2017-Jun-25 15:58N 54°20' E 010°09'0 0.0
2017-Jun-25 15:31N 54°20' E 010°09'0 0.0
2017-Jun-25 15:00N 54°20' E 010°09'0 0.0
2017-Jun-25 14:30N 54°20' E 010°09'0 0.0
2017-Jun-25 13:30N 54°20' E 010°09'1 3.0
2017-Jun-25 13:00N 54°22' E 010°10'3 5.7
2017-Jun-25 12:30N 54°24' E 010°12'2 4.1
2017-Jun-25 12:00N 54°26' E 010°14'3 5.1
2017-Jun-25 11:27N 54°29' E 010°15'0 0.6
2017-Jun-25 10:58N 54°29' E 010°15'3 6.4
2017-Jun-25 10:30N 54°26' E 010°12'6 0.6
2017-Jun-25 01:14N 54°20' E 010°09'0 0.0
2017-Jun-25 00:59N 54°20' E 010°09'0 0.0
2017-Jun-25 00:26N 54°20' E 010°09'0 0.0
2017-Jun-24 23:59N 54°20' E 010°09'0 0.0
2017-Jun-24 23:29N 54°20' E 010°09'0 0.0
2017-Jun-24 22:56N 54°20' E 010°09'0 0.0
2017-Jun-24 22:20N 54°20' E 010°09'0 0.0
2017-Jun-24 21:56N 54°20' E 010°09'1 1.8
2017-Jun-24 21:30N 54°21' E 010°10'4 8.0
2017-Jun-24 20:59N 54°25' E 010°12'3 6.3
2017-Jun-24 20:30N 54°27' E 010°15'0 1.0
2017-Jun-24 20:01N 54°27' E 010°14'3 5.1
2017-Jun-24 19:31N 54°25' E 010°12'2 3.8
2017-Jun-24 19:00N 54°23' E 010°12'3 5.7
2017-Jun-24 18:30N 54°21' E 010°10'2 3.4
2017-Jun-24 18:01N 54°19' E 010°08'1 2.3
2017-Jun-24 17:30N 54°20' E 010°09'0 0.0
2017-Jun-24 17:00N 54°20' E 010°09'0 0.0
2017-Jun-24 16:30N 54°20' E 010°09'0 0.0
2017-Jun-24 16:00N 54°20' E 010°09'0 0.0
2017-Jun-24 15:30N 54°20' E 010°09'0 0.0
2017-Jun-24 15:00N 54°20' E 010°09'0 0.0
2017-Jun-24 14:00N 54°20' E 010°09'1 1.4
2017-Jun-24 13:30N 54°21' E 010°10'2 4.4
2017-Jun-24 13:00N 54°23' E 010°11'  
2017-Jun-21 12:11N 54°20' E 010°09'0 0.0
2017-Jun-21 11:59N 54°20' E 010°09'0 0.0
2017-Jun-21 11:29N 54°20' E 010°09'0 0.0
2017-Jun-21 10:59N 54°20' E 010°09'0 0.0
2017-Jun-21 10:31N 54°20' E 010°09'1 2.6
2017-Jun-21 10:01N 54°19' E 010°08'3 6.5
2017-Jun-21 09:30N 54°22' E 010°10'4 6.3
2017-Jun-21 08:57N 54°25' E 010°13'2 5.6
2017-Jun-21 08:30N 54°23' E 010°12'3 6.1
2017-Jun-21 08:00N 54°20' E 010°09'0 0.0
2017-Jun-21 07:28N 54°20' E 010°09'0 0.0
2017-Jun-21 06:58N 54°20' E 010°09'0 0.0
2017-Jun-21 06:28N 54°20' E 010°09'0 0.0
2017-Jun-21 05:52N 54°20' E 010°09'0 0.0
2017-Jun-21 05:28N 54°20' E 010°09'0 0.0
2017-Jun-21 04:58N 54°20' E 010°09'0 0.0
2017-Jun-21 04:28N 54°20' E 010°09'0 0.0
2017-Jun-21 03:58N 54°20' E 010°09'0 0.0
2017-Jun-21 03:28N 54°20' E 010°09'0 0.0
2017-Jun-21 02:58N 54°20' E 010°09'0 0.0
2017-Jun-21 02:28N 54°20' E 010°09'0 0.0
2017-Jun-21 01:58N 54°20' E 010°09'0 0.0
2017-Jun-21 01:28N 54°20' E 010°09'0 0.0
2017-Jun-21 00:58N 54°20' E 010°09'0 0.0
2017-Jun-21 00:28N 54°20' E 010°09'0 0.0
2017-Jun-20 23:58N 54°20' E 010°09'0 0.0
2017-Jun-20 23:28N 54°20' E 010°09'0 0.0
2017-Jun-20 22:52N 54°20' E 010°09'0 0.0
2017-Jun-20 22:28N 54°20' E 010°09'0 0.0
2017-Jun-20 21:58N 54°20' E 010°09'0 0.0
2017-Jun-20 21:25N 54°20' E 010°09'0 0.0
2017-Jun-20 20:58N 54°20' E 010°09'0 0.0
2017-Jun-20 20:10N 54°20' E 010°09'0 0.0
2017-Jun-20 19:58N 54°20' E 010°09'0 0.0
2017-Jun-20 19:28N 54°20' E 010°09'0 0.0
2017-Jun-20 18:58N 54°20' E 010°09'0 0.0
2017-Jun-20 18:28N 54°20' E 010°09'0 0.0
2017-Jun-20 17:52N 54°20' E 010°09'0 0.0
2017-Jun-20 17:22N 54°20' E 010°09'0 0.0
2017-Jun-20 16:58N 54°20' E 010°09'  

Dump ship's entire track history